createdAt,value
2018-07-21T11:39:38.208Z,8.13
2018-07-21T11:42:05.825Z,7.53
2018-07-21T11:44:33.492Z,8.13
2018-07-21T11:47:01.063Z,8.30
2018-07-21T11:49:28.740Z,7.93
2018-07-21T11:51:56.529Z,8.40
2018-07-21T11:54:24.081Z,9.20
2018-07-21T11:56:55.969Z,8.00
2018-07-21T11:59:23.576Z,8.83
2018-07-21T12:01:51.188Z,8.20
2018-07-21T12:04:46.992Z,7.77
2018-07-21T12:07:39.823Z,8.47
2018-07-21T12:10:27.879Z,8.90
2018-07-21T12:16:07.497Z,7.83
2018-07-21T12:22:03.282Z,7.27
2018-07-21T12:33:52.729Z,7.17
2018-07-21T12:39:54.877Z,8.20
2018-07-21T12:42:22.452Z,8.40
2018-07-21T12:44:50.089Z,14.30
2018-07-21T12:47:17.693Z,14.10
2018-07-21T12:49:45.237Z,12.17
2018-07-21T12:52:12.830Z,8.97
2018-07-21T12:54:40.427Z,8.87
2018-07-21T13:03:29.337Z,8.83
2018-07-21T13:15:15.757Z,9.80
2018-07-21T13:17:43.376Z,9.10
2018-07-21T13:23:26.549Z,8.10
2018-07-21T13:29:21.709Z,7.50
2018-07-21T13:31:49.285Z,7.73
2018-07-21T13:34:16.912Z,6.67
2018-07-21T13:36:44.530Z,6.60
2018-07-21T13:39:12.840Z,5.73
2018-07-21T13:41:40.669Z,6.20
2018-07-21T13:44:08.377Z,6.53
2018-07-21T13:46:36.025Z,6.73
2018-07-21T13:49:04.192Z,7.20
2018-07-21T13:51:32.256Z,8.20
2018-07-21T13:54:00.142Z,5.50
2018-07-21T13:56:32.323Z,7.00
2018-07-21T13:59:00.455Z,6.53
2018-07-21T14:01:28.061Z,7.47
2018-07-21T14:03:55.693Z,17.87
2018-07-21T14:06:23.301Z,15.63
2018-07-21T14:08:50.899Z,9.60
2018-07-21T14:11:18.544Z,9.20
2018-07-21T14:13:46.144Z,10.40
2018-07-21T14:16:13.729Z,9.00
2018-07-21T14:18:41.422Z,11.10
2018-07-21T14:21:08.990Z,9.93
2018-07-21T14:23:36.568Z,11.73
2018-07-21T14:26:04.304Z,10.00
2018-07-21T14:28:48.144Z,10.90
2018-07-21T14:41:00.464Z,9.93
2018-07-21T14:46:41.818Z,10.07
2018-07-21T14:49:09.399Z,9.33
2018-07-21T14:51:37.022Z,10.23
2018-07-21T14:54:04.667Z,10.57
2018-07-21T14:56:32.537Z,14.00
2018-07-21T14:59:00.166Z,11.17
2018-07-21T15:01:27.851Z,10.97
2018-07-21T15:03:55.389Z,10.40
2018-07-21T15:06:23.184Z,11.03
2018-07-21T15:08:50.845Z,11.03
2018-07-21T15:11:18.642Z,12.13
2018-07-21T15:13:46.772Z,11.67
2018-07-21T15:16:14.709Z,11.70
2018-07-21T15:18:42.354Z,12.00
2018-07-21T15:21:10.023Z,11.87
2018-07-21T15:23:37.607Z,10.77
2018-07-21T15:26:05.449Z,11.20
2018-07-21T15:28:33.710Z,11.97
2018-07-21T15:31:01.314Z,11.97
2018-07-21T15:33:28.909Z,11.20
2018-07-21T15:35:56.557Z,11.10
2018-07-21T15:38:24.137Z,10.27
2018-07-21T15:40:51.758Z,9.77
2018-07-21T15:43:19.852Z,10.87
2018-07-21T15:45:47.730Z,12.17
2018-07-21T15:48:15.326Z,14.77
2018-07-21T15:50:43.098Z,11.63
2018-07-21T15:53:10.738Z,10.63
2018-07-21T15:55:38.349Z,15.20
2018-07-21T15:58:05.997Z,11.27
2018-07-21T16:00:33.540Z,11.97
2018-07-21T16:03:01.225Z,10.80
2018-07-21T16:05:28.823Z,12.73
2018-07-21T16:07:56.435Z,11.23
2018-07-21T16:10:24.045Z,11.43
2018-07-21T16:12:51.610Z,11.57
2018-07-21T16:15:19.307Z,11.67
2018-07-21T16:20:56.769Z,10.20
2018-07-21T16:23:44.266Z,15.80
2018-07-21T16:26:11.844Z,10.17
2018-07-21T16:28:39.456Z,10.90
2018-07-21T16:31:07.026Z,11.87
2018-07-21T16:33:34.658Z,9.83
2018-07-21T16:36:02.243Z,10.00
2018-07-21T16:38:29.806Z,10.10
2018-07-21T16:40:57.429Z,11.60
2018-07-21T16:43:25.026Z,13.43
2018-07-21T16:45:52.585Z,11.23
2018-07-21T16:48:20.201Z,11.43
2018-07-21T16:50:47.887Z,11.20
2018-07-21T16:53:15.509Z,10.67
2018-07-21T16:55:43.147Z,11.00
2018-07-21T16:58:10.827Z,10.27
2018-07-21T17:00:38.404Z,10.67
2018-07-21T17:03:06.065Z,10.50
2018-07-21T17:05:33.655Z,11.13
2018-07-21T17:08:01.319Z,11.13
2018-07-21T17:10:28.901Z,10.97
2018-07-21T17:12:56.505Z,10.93
2018-07-21T17:15:24.137Z,11.47
2018-07-21T17:17:51.741Z,10.40
2018-07-21T17:20:19.331Z,17.43
2018-07-21T17:22:46.938Z,11.77
2018-07-21T17:25:14.589Z,13.27
2018-07-21T17:27:42.167Z,10.17
2018-07-21T17:30:09.856Z,8.80
2018-07-21T17:32:37.498Z,8.37
2018-07-21T17:35:05.072Z,9.93
2018-07-21T17:37:32.667Z,8.20
2018-07-21T17:40:00.247Z,7.83
2018-07-21T17:42:27.904Z,9.13
2018-07-21T17:44:55.528Z,8.33
2018-07-21T17:47:23.153Z,7.77
2018-07-21T17:49:50.745Z,11.50
2018-07-21T17:52:18.363Z,7.50
2018-07-21T17:54:45.952Z,8.93
2018-07-21T17:57:13.513Z,7.97
2018-07-21T17:59:41.089Z,7.97
2018-07-21T18:02:08.642Z,8.13
2018-07-21T18:04:37.094Z,8.03
2018-07-21T18:07:04.775Z,8.47
2018-07-21T18:09:32.372Z,10.50
2018-07-21T18:12:00.004Z,10.40
2018-07-21T18:14:27.586Z,8.37
2018-07-21T18:16:55.196Z,7.27
2018-07-21T18:19:22.796Z,9.30
2018-07-21T18:21:50.352Z,6.90
2018-07-21T18:24:17.969Z,10.30
2018-07-21T18:26:45.531Z,7.30
2018-07-21T18:29:13.116Z,8.50
2018-07-21T18:31:40.792Z,15.17
2018-07-21T18:34:08.982Z,6.43
2018-07-21T18:36:36.537Z,6.60
2018-07-21T18:39:04.967Z,7.10
2018-07-21T18:41:32.547Z,6.57
2018-07-21T18:44:00.106Z,7.10
2018-07-21T18:46:27.672Z,8.53
2018-07-21T18:48:55.211Z,7.80
2018-07-21T18:51:22.833Z,6.60
2018-07-21T18:53:50.387Z,6.70
2018-07-21T18:56:17.972Z,8.73
2018-07-21T18:58:45.581Z,9.53
2018-07-21T19:01:13.148Z,6.60
2018-07-21T19:03:40.740Z,6.40
2018-07-21T19:06:08.336Z,6.73
2018-07-21T19:08:41.100Z,7.70
2018-07-21T19:11:08.713Z,6.83
2018-07-21T19:13:36.673Z,6.23
2018-07-21T19:17:09.541Z,7.63
2018-07-21T19:19:42.461Z,7.20
2018-07-21T19:22:10.925Z,5.83
2018-07-21T19:24:38.674Z,6.10
2018-07-21T19:27:13.115Z,7.23
2018-07-21T19:29:40.717Z,7.13
2018-07-21T19:32:17.962Z,7.23
2018-07-21T19:34:51.782Z,7.40
2018-07-21T19:37:26.576Z,6.97
2018-07-21T19:39:54.191Z,6.33
2018-07-21T19:42:21.774Z,8.50
2018-07-21T19:44:49.510Z,10.27
2018-07-21T19:47:17.942Z,5.70
2018-07-21T19:49:45.474Z,9.20
2018-07-21T19:52:13.076Z,7.03
2018-07-21T19:54:40.613Z,6.40
2018-07-21T19:57:11.116Z,7.37
2018-07-21T19:59:39.980Z,6.63
2018-07-21T20:02:08.413Z,6.80
2018-07-21T20:04:36.312Z,8.90
2018-07-21T20:07:03.936Z,6.97
2018-07-21T20:09:31.558Z,7.97
2018-07-21T20:11:59.436Z,5.80
2018-07-21T20:14:27.183Z,7.50
2018-07-21T20:16:54.792Z,7.10
2018-07-21T20:19:22.352Z,4.33
2018-07-21T20:21:49.990Z,6.00
2018-07-21T20:24:17.542Z,5.80
2018-07-21T20:26:45.130Z,5.30
2018-07-21T20:29:13.160Z,6.83
2018-07-21T20:31:40.765Z,4.00
2018-07-21T20:34:08.352Z,8.10
2018-07-21T20:36:35.969Z,5.78
2018-07-21T20:39:04.024Z,7.73
2018-07-21T20:41:31.616Z,4.80
2018-07-21T20:43:59.376Z,6.30
2018-07-21T20:46:26.978Z,4.60
2018-07-21T20:48:54.623Z,6.50
2018-07-21T20:51:28.514Z,6.70
2018-07-21T20:53:56.603Z,7.30
2018-07-21T20:56:24.436Z,5.20
2018-07-21T20:58:52.008Z,5.03
2018-07-21T21:01:19.615Z,4.57
2018-07-21T21:03:47.229Z,5.87
2018-07-21T21:06:15.041Z,5.43
2018-07-21T21:08:42.689Z,6.37
2018-07-21T21:11:10.476Z,4.63
2018-07-21T21:13:38.034Z,4.90
2018-07-21T21:16:05.752Z,5.43
2018-07-21T21:18:33.591Z,4.77
2018-07-21T21:21:01.197Z,4.87
2018-07-21T21:23:28.753Z,4.37
2018-07-21T21:25:56.334Z,5.90
2018-07-21T21:28:23.893Z,3.67
2018-07-21T21:30:51.497Z,6.37
2018-07-21T21:33:19.074Z,3.40
2018-07-21T21:35:46.653Z,4.07
2018-07-21T21:38:14.273Z,4.87
2018-07-21T21:40:41.827Z,3.70
2018-07-21T21:43:09.450Z,4.17
2018-07-21T21:45:37.037Z,4.00
2018-07-21T21:48:04.618Z,4.17
2018-07-21T21:50:32.197Z,4.70
2018-07-21T21:52:59.759Z,3.90
2018-07-21T21:55:27.356Z,4.53
2018-07-21T21:57:54.926Z,4.13
2018-07-21T22:00:22.515Z,4.20
2018-07-21T22:02:50.079Z,4.90
2018-07-21T22:05:17.691Z,4.03
2018-07-21T22:07:45.294Z,4.20
2018-07-21T22:10:12.883Z,6.40
2018-07-21T22:12:40.515Z,3.97
2018-07-21T22:15:12.183Z,3.53
2018-07-21T22:17:39.762Z,5.10
2018-07-21T22:20:07.461Z,4.23
2018-07-21T22:22:35.149Z,5.30
2018-07-21T22:25:02.728Z,8.00
2018-07-21T22:27:30.280Z,6.30
2018-07-21T22:29:57.820Z,4.87
2018-07-21T22:32:25.372Z,5.67
2018-07-21T22:34:52.988Z,4.13
2018-07-21T22:37:20.561Z,5.23
2018-07-21T22:39:48.094Z,4.37
2018-07-21T22:42:15.716Z,4.90
2018-07-21T22:44:43.250Z,4.93
2018-07-21T22:47:10.833Z,6.13
2018-07-21T22:49:38.387Z,4.40
2018-07-21T22:52:05.921Z,8.50
2018-07-21T22:54:33.488Z,6.70
2018-07-21T22:57:01.019Z,14.57
2018-07-21T22:59:28.595Z,6.10
2018-07-21T23:01:56.164Z,4.60
2018-07-21T23:04:23.721Z,4.70
2018-07-21T23:06:51.319Z,6.53
2018-07-21T23:09:18.846Z,7.23
2018-07-21T23:11:46.440Z,5.43
2018-07-21T23:14:13.988Z,6.30
2018-07-21T23:16:41.583Z,6.73
2018-07-21T23:19:09.193Z,4.57
2018-07-21T23:21:36.704Z,5.13
2018-07-21T23:24:04.278Z,5.23
2018-07-21T23:26:31.848Z,6.23
2018-07-21T23:28:59.418Z,5.47
2018-07-21T23:31:27.029Z,6.10
2018-07-21T23:33:54.598Z,12.67
2018-07-21T23:36:22.249Z,13.20
2018-07-21T23:38:49.805Z,7.00
2018-07-21T23:41:17.324Z,8.57
2018-07-21T23:43:44.879Z,8.43
2018-07-21T23:46:12.408Z,9.37
2018-07-21T23:48:39.976Z,10.93
2018-07-21T23:51:07.510Z,14.53
2018-07-21T23:53:35.087Z,10.87
2018-07-21T23:56:02.767Z,12.40
2018-07-21T23:58:30.298Z,11.93
